createdAt,value
2022-08-22T00:02:12.891Z,1.67
2022-08-22T00:02:54.176Z,1.53
2022-08-22T00:02:58.484Z,1.60
2022-08-22T00:03:02.619Z,1.50
2022-08-22T00:04:54.781Z,1.60
2022-08-22T00:07:40.897Z,1.55
2022-08-22T00:10:54.892Z,1.50
2022-08-22T00:13:33.079Z,1.50
2022-08-22T00:16:29.105Z,1.40
2022-08-22T00:19:17.178Z,1.45
2022-08-22T00:22:03.211Z,1.75
2022-08-22T00:24:43.690Z,1.60
2022-08-22T00:27:13.443Z,1.70
2022-08-22T00:30:04.223Z,1.87
2022-08-22T00:32:42.657Z,1.67
2022-08-22T00:35:18.246Z,1.77
2022-08-22T00:38:13.722Z,1.60
2022-08-22T00:40:40.299Z,1.70
2022-08-22T00:43:09.951Z,1.60
2022-08-22T00:46:07.210Z,1.55
2022-08-22T00:48:57.412Z,1.60
2022-08-22T00:51:33.141Z,1.40
2022-08-22T00:54:11.412Z,1.60
2022-08-22T00:57:18.521Z,1.73
2022-08-22T01:00:30.246Z,1.65
2022-08-22T01:03:07.422Z,1.50
2022-08-22T01:05:49.232Z,1.58
2022-08-22T01:08:29.535Z,1.60
2022-08-22T01:11:01.856Z,1.57
2022-08-22T01:13:44.567Z,1.50
2022-08-22T01:16:35.215Z,1.45
2022-08-22T01:19:23.417Z,1.25
2022-08-22T01:22:11.649Z,1.52
2022-08-22T01:25:15.225Z,1.30
2022-08-22T01:28:17.956Z,1.30
2022-08-22T01:30:47.210Z,1.40
2022-08-22T01:33:38.814Z,1.55
2022-08-22T01:36:31.181Z,1.30
2022-08-22T01:39:16.402Z,1.50
2022-08-22T01:42:07.369Z,1.30
2022-08-22T01:44:59.415Z,1.55
2022-08-22T01:47:49.795Z,1.50
2022-08-22T01:50:41.370Z,1.42
2022-08-22T01:53:10.933Z,1.20
2022-08-22T01:55:44.730Z,1.30
2022-08-22T01:58:33.121Z,1.60
2022-08-22T02:01:16.588Z,1.45
2022-08-22T02:03:56.189Z,1.40
2022-08-22T02:06:41.420Z,1.60
2022-08-22T02:09:14.888Z,1.40
2022-08-22T02:12:05.700Z,1.30
2022-08-22T02:15:21.361Z,1.45
2022-08-22T02:18:01.251Z,1.50
2022-08-22T02:21:02.157Z,1.57
2022-08-22T02:23:53.269Z,1.60
2022-08-22T02:26:37.830Z,1.75
2022-08-22T02:29:16.429Z,1.35
2022-08-22T02:31:55.763Z,1.50
2022-08-22T02:34:32.278Z,1.47
2022-08-22T02:37:16.845Z,1.40
2022-08-22T02:39:57.149Z,1.55
2022-08-22T02:42:34.822Z,1.58
2022-08-22T02:45:20.162Z,1.92
2022-08-22T02:48:03.497Z,1.53
2022-08-22T02:50:30.065Z,1.95
2022-08-22T02:53:12.541Z,1.95
2022-08-22T02:55:50.000Z,1.83
2022-08-22T02:58:30.629Z,1.90
2022-08-22T03:01:03.302Z,1.77
2022-08-22T03:03:36.626Z,1.98
2022-08-22T03:06:29.386Z,1.90
2022-08-22T03:09:14.320Z,1.88
2022-08-22T03:11:44.859Z,1.83
2022-08-22T03:14:30.306Z,1.70
2022-08-22T03:17:19.777Z,2.00
2022-08-22T03:19:58.428Z,2.17
2022-08-22T03:22:35.601Z,1.70
2022-08-22T03:25:26.844Z,1.52
2022-08-22T03:28:01.046Z,1.47
2022-08-22T03:31:00.043Z,1.70
2022-08-22T03:33:29.566Z,1.80
2022-08-22T03:36:02.818Z,1.80
2022-08-22T03:38:32.120Z,1.70
2022-08-22T03:41:04.417Z,1.40
2022-08-22T03:43:40.044Z,1.33
2022-08-22T03:46:17.811Z,1.30
2022-08-22T03:49:16.097Z,1.60
2022-08-22T03:52:07.300Z,1.77
2022-08-22T03:55:02.150Z,1.77
2022-08-22T03:57:58.201Z,1.70
2022-08-22T04:00:55.997Z,1.90
2022-08-22T04:04:00.522Z,1.80
2022-08-22T04:06:56.394Z,2.20
2022-08-22T04:10:00.338Z,1.50
2022-08-22T04:12:55.173Z,2.00
2022-08-22T04:15:57.221Z,1.90
2022-08-22T04:19:01.854Z,2.00
2022-08-22T04:21:52.936Z,2.08
2022-08-22T04:24:52.644Z,1.73
2022-08-22T04:27:40.537Z,2.00
2022-08-22T04:30:31.445Z,2.13
2022-08-22T04:33:34.445Z,2.03
2022-08-22T04:36:24.748Z,2.10
2022-08-22T04:39:18.553Z,2.10
2022-08-22T04:42:00.692Z,1.90
2022-08-22T04:44:37.595Z,1.80
2022-08-22T04:47:22.263Z,2.22
2022-08-22T04:49:54.980Z,2.20
2022-08-22T04:52:33.442Z,2.23
2022-08-22T04:55:35.541Z,2.20
2022-08-22T04:58:17.151Z,2.30
2022-08-22T05:01:19.020Z,2.53
2022-08-22T05:03:51.535Z,2.28
2022-08-22T05:06:20.551Z,2.80
2022-08-22T05:08:53.950Z,2.58
2022-08-22T05:11:23.021Z,2.90
2022-08-22T05:14:00.160Z,2.63
2022-08-22T05:16:34.917Z,3.20
2022-08-22T05:19:07.387Z,3.07
2022-08-22T05:21:38.628Z,3.05
2022-08-22T05:24:09.869Z,2.97
2022-08-22T05:26:45.172Z,3.05
2022-08-22T05:29:12.518Z,3.13
2022-08-22T05:31:45.842Z,3.40
2022-08-22T05:34:16.709Z,3.30
2022-08-22T05:36:54.480Z,3.70
2022-08-22T05:39:25.394Z,3.00
2022-08-22T05:41:56.207Z,3.00
2022-08-22T05:44:28.210Z,2.70
2022-08-22T05:47:01.606Z,2.60
2022-08-22T05:49:31.089Z,3.25
2022-08-22T05:52:16.430Z,2.67
2022-08-22T05:54:56.903Z,2.47
2022-08-22T05:57:30.999Z,2.87
2022-08-22T06:00:10.859Z,2.90
2022-08-22T06:03:01.982Z,3.10
2022-08-22T06:05:31.542Z,2.80
2022-08-22T06:08:07.925Z,2.50
2022-08-22T06:10:44.759Z,2.90
2022-08-22T06:13:24.726Z,2.70
2022-08-22T06:16:20.470Z,2.45
2022-08-22T06:18:49.830Z,2.55
2022-08-22T06:21:27.281Z,2.80
2022-08-22T06:24:00.025Z,2.60
2022-08-22T06:26:31.063Z,2.60
2022-08-22T06:28:59.721Z,2.90
2022-08-22T06:31:32.756Z,2.80
2022-08-22T06:34:29.864Z,2.78
2022-08-22T06:36:57.893Z,2.90
2022-08-22T06:39:32.455Z,2.70
2022-08-22T06:42:16.692Z,3.22
2022-08-22T06:44:47.630Z,2.80
2022-08-22T06:47:37.347Z,3.22
2022-08-22T06:50:14.235Z,3.10
2022-08-22T06:53:17.673Z,3.35
2022-08-22T06:55:49.444Z,2.92
2022-08-22T06:58:43.773Z,2.70
2022-08-22T07:01:20.225Z,2.60
2022-08-22T07:03:50.439Z,3.10
2022-08-22T07:06:27.866Z,3.00
2022-08-22T07:08:55.739Z,2.95
2022-08-22T07:11:29.514Z,2.92
2022-08-22T07:14:17.650Z,3.10
2022-08-22T07:16:58.122Z,3.20
2022-08-22T07:19:27.047Z,3.13
2022-08-22T07:21:54.499Z,3.40
2022-08-22T07:24:25.679Z,3.55
2022-08-22T07:27:13.242Z,3.33
2022-08-22T07:30:10.127Z,3.10
2022-08-22T07:32:46.656Z,2.97
2022-08-22T07:35:17.202Z,3.10
2022-08-22T07:37:46.771Z,3.30
2022-08-22T07:40:28.372Z,3.47
2022-08-22T07:43:44.083Z,3.40
2022-08-22T07:46:10.705Z,3.20
2022-08-22T07:49:06.210Z,3.95
2022-08-22T07:51:41.525Z,3.17
2022-08-22T07:54:11.857Z,3.65
2022-08-22T07:56:43.404Z,3.50
2022-08-22T07:59:14.643Z,3.30
2022-08-22T08:01:47.166Z,3.70
2022-08-22T08:04:17.926Z,3.22
2022-08-22T08:06:48.773Z,3.28
2022-08-22T08:09:16.408Z,3.50
2022-08-22T08:11:43.869Z,3.35
2022-08-22T08:14:13.886Z,3.72
2022-08-22T08:17:13.086Z,3.53
2022-08-22T08:19:41.061Z,4.18
2022-08-22T08:22:07.855Z,3.57
2022-08-22T08:24:43.371Z,3.40
2022-08-22T08:27:36.173Z,3.15
2022-08-22T08:30:05.607Z,3.92
2022-08-22T08:32:35.462Z,3.58
2022-08-22T08:35:26.060Z,3.50
2022-08-22T08:38:07.801Z,3.67
2022-08-22T08:40:34.351Z,3.33
2022-08-22T08:43:28.107Z,3.45
2022-08-22T08:46:36.681Z,3.70
2022-08-22T08:49:43.574Z,2.83
2022-08-22T08:52:28.830Z,3.50
2022-08-22T08:55:02.437Z,3.40
2022-08-22T08:57:58.295Z,3.90
2022-08-22T09:00:44.534Z,3.15
2022-08-22T09:06:42.322Z,3.15
2022-08-22T09:09:41.901Z,3.35
2022-08-22T09:12:52.203Z,3.28
2022-08-22T09:15:39.097Z,3.20
2022-08-22T09:18:24.315Z,3.03
2022-08-22T09:21:31.455Z,2.95
2022-08-22T09:24:16.038Z,2.97
2022-08-22T09:26:57.627Z,2.22
2022-08-22T09:30:07.056Z,2.78
2022-08-22T09:32:55.690Z,2.20
2022-08-22T09:36:03.006Z,2.40
2022-08-22T09:38:50.131Z,2.35
2022-08-22T09:41:34.102Z,2.42
2022-08-22T09:44:32.712Z,2.80
2022-08-22T09:47:27.446Z,2.40
2022-08-22T09:50:19.867Z,2.33
2022-08-22T09:53:09.138Z,2.78
2022-08-22T09:56:15.155Z,2.17
2022-08-22T09:58:45.366Z,2.60
2022-08-22T10:01:53.189Z,2.40
2022-08-22T10:04:33.201Z,2.67
2022-08-22T10:07:12.188Z,2.88
2022-08-22T10:09:39.997Z,2.33
2022-08-22T10:12:13.029Z,2.40
2022-08-22T10:14:58.385Z,2.40
2022-08-22T10:17:31.437Z,2.17
2022-08-22T10:20:09.934Z,2.42
2022-08-22T10:23:00.735Z,2.25
2022-08-22T10:25:41.770Z,2.08
2022-08-22T10:28:31.628Z,2.33
2022-08-22T10:31:08.277Z,2.00
2022-08-22T10:34:13.298Z,2.17
2022-08-22T10:36:50.500Z,2.30
2022-08-22T10:39:23.546Z,2.35
2022-08-22T10:42:11.985Z,2.20
2022-08-22T10:44:49.120Z,2.10
2022-08-22T10:47:19.307Z,1.98
2022-08-22T10:49:57.129Z,2.40
2022-08-22T10:52:26.930Z,2.22
2022-08-22T10:55:09.630Z,2.70
2022-08-22T10:57:49.407Z,2.15
2022-08-22T11:00:34.582Z,2.55
2022-08-22T11:03:28.778Z,2.00
2022-08-22T11:06:02.901Z,2.60
2022-08-22T11:08:35.598Z,1.90
2022-08-22T11:11:38.016Z,1.98
2022-08-22T11:14:38.833Z,2.10
2022-08-22T11:17:30.798Z,2.00
2022-08-22T11:20:14.283Z,1.80
2022-08-22T11:23:05.126Z,1.90
2022-08-22T11:25:52.435Z,1.80
2022-08-22T11:28:38.144Z,1.95
2022-08-22T11:31:21.452Z,2.00
2022-08-22T11:34:10.303Z,2.00
2022-08-22T11:36:46.423Z,1.70
2022-08-22T11:39:30.455Z,2.10
2022-08-22T11:42:23.180Z,2.00
2022-08-22T11:44:56.647Z,2.13
2022-08-22T11:47:27.261Z,1.67
2022-08-22T11:50:14.417Z,1.63
2022-08-22T11:52:51.538Z,1.80
2022-08-22T11:55:38.733Z,1.67
2022-08-22T11:58:30.355Z,2.05
2022-08-22T12:01:02.487Z,1.70
2022-08-22T12:03:36.334Z,1.50
2022-08-22T12:06:40.487Z,1.95
2022-08-22T12:09:35.861Z,1.88
2022-08-22T12:12:24.101Z,1.90
2022-08-22T12:14:57.373Z,1.90
2022-08-22T12:17:55.236Z,1.80
2022-08-22T12:20:29.113Z,1.70
2022-08-22T12:23:48.930Z,2.00
2022-08-22T12:26:54.847Z,1.75
2022-08-22T12:29:45.002Z,2.40
2022-08-22T12:32:36.262Z,1.73
2022-08-22T12:35:20.818Z,2.08
2022-08-22T12:38:37.874Z,2.45
2022-08-22T12:41:38.234Z,1.73
2022-08-22T12:44:16.465Z,1.83
2022-08-22T12:47:05.782Z,1.70
2022-08-22T12:49:53.044Z,1.88
2022-08-22T12:52:44.884Z,2.00
2022-08-22T12:55:33.135Z,1.80
2022-08-22T12:58:15.843Z,1.90
2022-08-22T13:00:47.280Z,2.20
2022-08-22T13:03:35.485Z,2.20
2022-08-22T13:06:26.899Z,2.00
2022-08-22T13:08:54.346Z,2.08
2022-08-22T13:11:23.591Z,2.05
2022-08-22T13:13:59.400Z,2.30
2022-08-22T13:16:36.443Z,1.90
2022-08-22T13:19:13.540Z,2.40
2022-08-22T13:21:47.092Z,1.88
2022-08-22T13:24:22.484Z,2.55
2022-08-22T13:26:56.773Z,2.10
2022-08-22T13:29:42.639Z,2.25
2022-08-22T13:32:23.502Z,2.00
2022-08-22T13:34:54.939Z,2.00
2022-08-22T13:37:25.913Z,2.38
2022-08-22T13:39:59.733Z,2.07
2022-08-22T13:42:30.913Z,2.25
2022-08-22T13:45:02.271Z,2.50
2022-08-22T13:47:31.711Z,2.00
2022-08-22T13:50:07.956Z,2.33
2022-08-22T13:53:00.942Z,2.37
2022-08-22T13:55:35.372Z,2.20
2022-08-22T13:58:11.497Z,2.30
2022-08-22T14:01:07.502Z,2.30
2022-08-22T14:03:48.776Z,2.50
2022-08-22T14:06:32.774Z,2.30
2022-08-22T14:09:31.394Z,2.65
2022-08-22T14:12:12.109Z,2.80
2022-08-22T14:14:41.968Z,2.20
2022-08-22T14:17:21.149Z,2.92
2022-08-22T14:19:58.891Z,2.50
2022-08-22T14:22:31.744Z,2.92
2022-08-22T14:25:03.057Z,2.58
2022-08-22T14:27:56.094Z,2.53
2022-08-22T14:30:27.291Z,2.65
2022-08-22T14:33:13.975Z,2.30
2022-08-22T14:35:53.100Z,2.67
2022-08-22T14:38:46.232Z,2.80
2022-08-22T14:41:56.149Z,2.70
2022-08-22T14:45:01.693Z,2.60
2022-08-22T14:48:30.409Z,2.30
2022-08-22T14:50:46.176Z,2.65
2022-08-22T14:53:24.945Z,2.35
2022-08-22T14:56:18.183Z,2.30
2022-08-22T14:58:47.936Z,2.42
2022-08-22T15:01:18.865Z,2.50
2022-08-22T15:03:59.778Z,2.38
2022-08-22T15:06:31.149Z,2.50
2022-08-22T15:09:00.070Z,2.63
2022-08-22T15:11:32.004Z,2.58
2022-08-22T15:14:01.680Z,2.53
2022-08-22T15:16:36.476Z,2.50
2022-08-22T15:19:41.106Z,2.70
2022-08-22T15:22:25.742Z,2.85
2022-08-22T15:25:03.014Z,2.30
2022-08-22T15:27:32.209Z,2.10
2022-08-22T15:30:02.770Z,2.25
2022-08-22T15:32:31.489Z,2.22
2022-08-22T15:35:14.205Z,2.00
2022-08-22T15:37:55.041Z,1.92
2022-08-22T15:40:36.438Z,1.93
2022-08-22T15:43:25.729Z,1.85
2022-08-22T15:46:36.847Z,2.00
2022-08-22T15:49:28.434Z,1.92
2022-08-22T15:52:11.204Z,1.88
2022-08-22T15:54:46.852Z,2.00
2022-08-22T15:57:25.344Z,1.90
2022-08-22T15:59:57.188Z,1.85
2022-08-22T16:02:36.983Z,1.70
2022-08-22T16:05:26.308Z,1.63
2022-08-22T16:08:05.562Z,1.60
2022-08-22T16:10:37.719Z,2.05
2022-08-22T16:13:38.154Z,2.22
2022-08-22T16:16:05.406Z,1.70
2022-08-22T16:18:42.688Z,1.60
2022-08-22T16:21:13.345Z,1.60
2022-08-22T16:23:49.649Z,1.52
2022-08-22T16:26:30.133Z,1.38
2022-08-22T16:29:18.403Z,1.38
2022-08-22T16:31:45.019Z,1.25
2022-08-22T16:34:20.571Z,1.10
2022-08-22T16:37:08.727Z,1.40
2022-08-22T16:40:05.956Z,1.30
2022-08-22T16:42:39.804Z,1.30
2022-08-22T16:45:24.513Z,1.20
2022-08-22T16:47:58.533Z,1.27
2022-08-22T16:50:30.510Z,1.20
2022-08-22T16:53:10.599Z,1.48
2022-08-22T16:55:40.837Z,1.50
2022-08-22T16:58:40.229Z,1.20
2022-08-22T17:01:24.256Z,1.20
2022-08-22T17:04:14.986Z,1.27
2022-08-22T17:06:44.201Z,1.30
2022-08-22T17:09:29.062Z,1.40
2022-08-22T17:12:18.870Z,1.50
2022-08-22T17:15:07.134Z,1.20
2022-08-22T17:17:49.305Z,1.33
2022-08-22T17:20:39.566Z,1.40
2022-08-22T17:23:20.898Z,1.58
2022-08-22T17:26:01.446Z,1.70
2022-08-22T17:28:49.922Z,1.20
2022-08-22T17:31:31.310Z,1.35
2022-08-22T17:34:19.498Z,1.52
2022-08-22T17:36:55.251Z,1.40
2022-08-22T17:39:35.232Z,1.55
2022-08-22T17:42:26.678Z,1.60
2022-08-22T17:45:07.952Z,1.60
2022-08-22T17:47:44.471Z,1.60
2022-08-22T17:50:25.029Z,1.80
2022-08-22T17:52:57.271Z,1.48
2022-08-22T17:55:29.130Z,1.13
2022-08-22T17:58:06.366Z,1.30
2022-08-22T18:00:41.133Z,1.70
2022-08-22T18:03:15.771Z,1.30
2022-08-22T18:05:53.147Z,1.58
2022-08-22T18:11:31.255Z,1.48
2022-08-22T18:14:12.494Z,1.80
2022-08-22T18:16:41.974Z,1.60
2022-08-22T18:19:17.291Z,1.70
2022-08-22T18:22:14.221Z,1.30
2022-08-22T18:24:51.105Z,1.63
2022-08-22T18:27:47.536Z,1.70
2022-08-22T18:30:15.942Z,1.80
2022-08-22T18:32:56.153Z,1.92
2022-08-22T18:35:40.318Z,1.73
2022-08-22T18:38:23.688Z,1.63
2022-08-22T18:40:56.662Z,1.73
2022-08-22T18:43:38.870Z,2.00
2022-08-22T18:46:39.866Z,1.70
2022-08-22T18:49:19.682Z,1.40
2022-08-22T18:52:20.234Z,1.80
2022-08-22T18:55:22.037Z,1.73
2022-08-22T18:58:14.327Z,1.60
2022-08-22T19:00:58.592Z,1.90
2022-08-22T19:03:47.748Z,1.47
2022-08-22T19:06:29.461Z,1.52
2022-08-22T19:09:08.168Z,1.77
2022-08-22T19:12:01.874Z,1.80
2022-08-22T19:14:59.803Z,1.63
2022-08-22T19:18:03.388Z,1.80
2022-08-22T19:20:54.637Z,1.60
2022-08-22T19:23:33.134Z,1.63
2022-08-22T19:26:36.829Z,1.70
2022-08-22T19:29:18.212Z,1.95
2022-08-22T19:31:54.585Z,1.80
2022-08-22T19:34:31.997Z,2.08
2022-08-22T19:37:31.947Z,1.90
2022-08-22T19:40:10.165Z,1.80
2022-08-22T19:42:39.719Z,2.00
2022-08-22T19:45:18.518Z,1.87
2022-08-22T19:47:53.984Z,1.95
2022-08-22T19:50:21.295Z,2.42
2022-08-22T19:53:04.118Z,1.70
2022-08-22T19:55:49.146Z,2.13
2022-08-22T19:58:42.442Z,1.70
2022-08-22T20:01:38.290Z,2.10
2022-08-22T20:04:37.109Z,2.33
2022-08-22T20:07:15.966Z,2.25
2022-08-22T20:09:57.844Z,2.00
2022-08-22T20:12:33.105Z,1.60
2022-08-22T20:15:18.327Z,1.80
2022-08-22T20:18:11.637Z,1.98
2022-08-22T20:20:38.997Z,2.05
2022-08-22T20:23:20.564Z,1.70
2022-08-22T20:25:50.258Z,1.77
2022-08-22T20:28:25.922Z,2.10
2022-08-22T20:30:57.813Z,1.75
2022-08-22T20:33:28.545Z,2.10
2022-08-22T20:36:01.405Z,1.85
2022-08-22T20:38:38.135Z,2.10
2022-08-22T20:41:24.249Z,1.63
2022-08-22T20:43:57.486Z,2.00
2022-08-22T20:46:55.347Z,2.10
2022-08-22T20:49:31.268Z,2.08
2022-08-22T20:52:00.694Z,2.00
2022-08-22T20:54:32.957Z,2.00
2022-08-22T20:57:14.353Z,2.30
2022-08-22T20:59:42.660Z,2.10
2022-08-22T21:02:26.382Z,2.00
2022-08-22T21:05:08.546Z,1.97
2022-08-22T21:07:46.172Z,1.65
2022-08-22T21:10:46.047Z,3.08
2022-08-22T21:13:29.457Z,1.90
2022-08-22T21:16:00.178Z,2.20
2022-08-22T21:18:35.852Z,2.07
2022-08-22T21:21:17.253Z,2.10
2022-08-22T21:24:00.584Z,1.92
2022-08-22T21:26:30.816Z,2.10
2022-08-22T21:29:32.698Z,2.15
2022-08-22T21:32:11.601Z,2.00
2022-08-22T21:34:43.825Z,2.20
2022-08-22T21:37:43.339Z,2.15
2022-08-22T21:40:20.611Z,2.03
2022-08-22T21:43:03.749Z,2.22
2022-08-22T21:45:38.251Z,2.20
2022-08-22T21:48:55.002Z,2.10
2022-08-22T21:51:28.335Z,2.20
2022-08-22T21:54:25.694Z,2.33
2022-08-22T21:56:58.751Z,2.30
2022-08-22T21:59:50.729Z,2.20
2022-08-22T22:02:29.131Z,2.10
2022-08-22T22:04:59.128Z,2.22
2022-08-22T22:07:27.231Z,2.15
2022-08-22T22:09:55.146Z,2.10
2022-08-22T22:12:22.352Z,2.27
2022-08-22T22:14:49.473Z,1.98
2022-08-22T22:17:17.729Z,2.15
2022-08-22T22:19:44.858Z,2.15
2022-08-22T22:22:11.497Z,2.13
2022-08-22T22:24:38.112Z,2.20
2022-08-22T22:27:05.036Z,1.92
2022-08-22T22:29:32.733Z,2.40
2022-08-22T22:31:59.497Z,2.10
2022-08-22T22:34:26.170Z,2.30
2022-08-22T22:36:53.958Z,1.90
2022-08-22T22:39:20.782Z,2.20
2022-08-22T22:41:49.051Z,2.20
2022-08-22T22:44:15.809Z,2.30
2022-08-22T22:46:42.418Z,2.30
2022-08-22T22:49:09.061Z,1.90
2022-08-22T22:51:35.691Z,2.05
2022-08-22T22:54:02.306Z,2.20
2022-08-22T22:56:28.996Z,2.30
2022-08-22T22:59:00.637Z,2.20
2022-08-22T23:01:28.052Z,2.13
2022-08-22T23:03:59.511Z,2.45
2022-08-22T23:06:32.831Z,2.45
2022-08-22T23:08:59.540Z,2.70
2022-08-22T23:11:30.496Z,2.30
2022-08-22T23:13:57.320Z,2.17
2022-08-22T23:16:26.822Z,2.38
2022-08-22T23:18:53.742Z,2.42
2022-08-22T23:21:24.890Z,2.35
2022-08-22T23:23:56.456Z,2.60
2022-08-22T23:26:23.832Z,2.80
2022-08-22T23:28:50.496Z,2.38
2022-08-22T23:31:30.364Z,2.60
2022-08-22T23:34:01.186Z,2.55
2022-08-22T23:36:29.571Z,2.58
2022-08-22T23:38:56.348Z,2.40
2022-08-22T23:41:23.014Z,2.58
2022-08-22T23:43:53.551Z,2.70
2022-08-22T23:46:22.590Z,2.28
2022-08-22T23:48:49.341Z,2.30
2022-08-22T23:51:18.905Z,2.60
2022-08-22T23:53:50.122Z,2.25
2022-08-22T23:56:22.206Z,2.58
2022-08-22T23:58:50.253Z,2.70
